sensor_id;sensor_type;location;lat;lon;timestamp;P1;durP1;ratioP1;P2;durP2;ratioP2
46282;SDS011;32017;43.700;11.820;2023-07-08T00:00:27;1.70;;;1.60;;
46282;SDS011;32017;43.700;11.820;2023-07-08T00:02:46;1.52;;;1.52;;
46282;SDS011;32017;43.700;11.820;2023-07-08T00:05:07;1.63;;;1.60;;
46282;SDS011;32017;43.700;11.820;2023-07-08T00:07:28;1.50;;;1.42;;
46282;SDS011;32017;43.700;11.820;2023-07-08T00:09:48;2.00;;;1.20;;
46282;SDS011;32017;43.700;11.820;2023-07-08T00:12:08;1.20;;;1.13;;
46282;SDS011;32017;43.700;11.820;2023-07-08T00:14:30;2.42;;;1.23;;
46282;SDS011;32017;43.700;11.820;2023-07-08T00:16:50;1.48;;;1.38;;
46282;SDS011;32017;43.700;11.820;2023-07-08T00:19:11;7.57;;;1.40;;
46282;SDS011;32017;43.700;11.820;2023-07-08T00:21:31;2.45;;;1.77;;
46282;SDS011;32017;43.700;11.820;2023-07-08T00:23:51;1.92;;;1.55;;
46282;SDS011;32017;43.700;11.820;2023-07-08T00:26:25;4.15;;;1.85;;
46282;SDS011;32017;43.700;11.820;2023-07-08T00:28:46;2.67;;;1.75;;
46282;SDS011;32017;43.700;11.820;2023-07-08T00:31:08;1.85;;;1.75;;
46282;SDS011;32017;43.700;11.820;2023-07-08T00:33:29;1.50;;;1.50;;
46282;SDS011;32017;43.700;11.820;2023-07-08T00:35:49;1.70;;;1.48;;
46282;SDS011;32017;43.700;11.820;2023-07-08T00:38:17;1.30;;;1.20;;
46282;SDS011;32017;43.700;11.820;2023-07-08T00:41:10;1.55;;;1.42;;
46282;SDS011;32017;43.700;11.820;2023-07-08T00:43:49;1.40;;;1.40;;
46282;SDS011;32017;43.700;11.820;2023-07-08T00:48:46;1.30;;;1.30;;
46282;SDS011;32017;43.700;11.820;2023-07-08T00:51:10;1.75;;;1.52;;
46282;SDS011;32017;43.700;11.820;2023-07-08T00:53:33;1.88;;;1.25;;
46282;SDS011;32017;43.700;11.820;2023-07-08T00:55:59;2.17;;;1.40;;
46282;SDS011;32017;43.700;11.820;2023-07-08T00:58:37;1.80;;;1.70;;
46282;SDS011;32017;43.700;11.820;2023-07-08T01:01:02;1.52;;;1.42;;
46282;SDS011;32017;43.700;11.820;2023-07-08T01:03:25;2.63;;;1.10;;
46282;SDS011;32017;43.700;11.820;2023-07-08T01:05:48;1.55;;;1.15;;
46282;SDS011;32017;43.700;11.820;2023-07-08T01:08:10;1.70;;;1.45;;
46282;SDS011;32017;43.700;11.820;2023-07-08T01:10:32;3.15;;;1.58;;
46282;SDS011;32017;43.700;11.820;2023-07-08T01:12:59;1.98;;;1.77;;
46282;SDS011;32017;43.700;11.820;2023-07-08T01:15:22;1.23;;;1.20;;
46282;SDS011;32017;43.700;11.820;2023-07-08T01:17:46;1.33;;;1.20;;
46282;SDS011;32017;43.700;11.820;2023-07-08T01:20:06;1.40;;;1.40;;
46282;SDS011;32017;43.700;11.820;2023-07-08T01:22:34;1.30;;;1.30;;
46282;SDS011;32017;43.700;11.820;2023-07-08T01:24:55;2.63;;;2.38;;
46282;SDS011;32017;43.700;11.820;2023-07-08T01:27:15;1.90;;;1.85;;
46282;SDS011;32017;43.700;11.820;2023-07-08T01:29:37;1.38;;;1.20;;
46282;SDS011;32017;43.700;11.820;2023-07-08T01:31:57;1.55;;;1.52;;
46282;SDS011;32017;43.700;11.820;2023-07-08T01:34:22;3.13;;;1.80;;
46282;SDS011;32017;43.700;11.820;2023-07-08T01:36:44;1.77;;;1.67;;
46282;SDS011;32017;43.700;11.820;2023-07-08T01:39:14;1.70;;;1.60;;
46282;SDS011;32017;43.700;11.820;2023-07-08T01:41:37;1.38;;;1.27;;
46282;SDS011;32017;43.700;11.820;2023-07-08T01:43:57;3.63;;;1.85;;
46282;SDS011;32017;43.700;11.820;2023-07-08T01:46:19;1.95;;;1.40;;
46282;SDS011;32017;43.700;11.820;2023-07-08T01:48:45;3.22;;;1.58;;
46282;SDS011;32017;43.700;11.820;2023-07-08T01:51:09;1.13;;;1.13;;
46282;SDS011;32017;43.700;11.820;2023-07-08T01:53:30;1.67;;;1.50;;
46282;SDS011;32017;43.700;11.820;2023-07-08T01:55:57;2.88;;;1.90;;
46282;SDS011;32017;43.700;11.820;2023-07-08T01:58:17;1.77;;;1.40;;
46282;SDS011;32017;43.700;11.820;2023-07-08T02:00:38;2.00;;;1.90;;
46282;SDS011;32017;43.700;11.820;2023-07-08T02:02:58;4.18;;;1.60;;
46282;SDS011;32017;43.700;11.820;2023-07-08T02:05:18;1.30;;;1.30;;
46282;SDS011;32017;43.700;11.820;2023-07-08T02:07:38;1.83;;;1.50;;
46282;SDS011;32017;43.700;11.820;2023-07-08T02:09:59;1.38;;;1.38;;
46282;SDS011;32017;43.700;11.820;2023-07-08T02:12:19;1.50;;;1.40;;
46282;SDS011;32017;43.700;11.820;2023-07-08T02:14:38;1.40;;;1.40;;
46282;SDS011;32017;43.700;11.820;2023-07-08T02:16:58;1.55;;;1.45;;
46282;SDS011;32017;43.700;11.820;2023-07-08T02:19:19;1.92;;;1.90;;
46282;SDS011;32017;43.700;11.820;2023-07-08T02:21:41;4.72;;;1.48;;
46282;SDS011;32017;43.700;11.820;2023-07-08T02:24:02;2.65;;;1.50;;
46282;SDS011;32017;43.700;11.820;2023-07-08T02:26:22;1.60;;;1.60;;
46282;SDS011;32017;43.700;11.820;2023-07-08T02:28:43;1.55;;;1.45;;
46282;SDS011;32017;43.700;11.820;2023-07-08T02:31:03;1.80;;;1.70;;
46282;SDS011;32017;43.700;11.820;2023-07-08T02:33:23;1.70;;;1.60;;
46282;SDS011;32017;43.700;11.820;2023-07-08T02:35:47;1.98;;;1.80;;
46282;SDS011;32017;43.700;11.820;2023-07-08T02:38:07;1.65;;;1.40;;
46282;SDS011;32017;43.700;11.820;2023-07-08T02:40:27;2.05;;;1.85;;
46282;SDS011;32017;43.700;11.820;2023-07-08T02:42:47;1.52;;;1.40;;
46282;SDS011;32017;43.700;11.820;2023-07-08T02:45:07;1.90;;;1.90;;
46282;SDS011;32017;43.700;11.820;2023-07-08T02:47:28;1.50;;;1.40;;
46282;SDS011;32017;43.700;11.820;2023-07-08T02:49:48;2.30;;;2.20;;
46282;SDS011;32017;43.700;11.820;2023-07-08T02:52:08;4.00;;;2.47;;
46282;SDS011;32017;43.700;11.820;2023-07-08T02:54:28;1.55;;;1.52;;
46282;SDS011;32017;43.700;11.820;2023-07-08T02:56:49;1.75;;;1.70;;
46282;SDS011;32017;43.700;11.820;2023-07-08T02:59:08;1.48;;;1.48;;
46282;SDS011;32017;43.700;11.820;2023-07-08T03:01:28;1.98;;;1.77;;
46282;SDS011;32017;43.700;11.820;2023-07-08T03:03:48;4.10;;;1.30;;
46282;SDS011;32017;43.700;11.820;2023-07-08T03:06:09;1.65;;;1.55;;
46282;SDS011;32017;43.700;11.820;2023-07-08T03:08:29;2.00;;;1.90;;
46282;SDS011;32017;43.700;11.820;2023-07-08T03:10:53;3.38;;;2.00;;
46282;SDS011;32017;43.700;11.820;2023-07-08T03:13:18;2.05;;;1.85;;
46282;SDS011;32017;43.700;11.820;2023-07-08T03:15:38;1.52;;;1.42;;
46282;SDS011;32017;43.700;11.820;2023-07-08T03:17:58;2.30;;;2.20;;
46282;SDS011;32017;43.700;11.820;2023-07-08T03:20:19;2.45;;;2.35;;
46282;SDS011;32017;43.700;11.820;2023-07-08T03:22:38;1.67;;;1.58;;
46282;SDS011;32017;43.700;11.820;2023-07-08T03:24:58;1.77;;;1.67;;
46282;SDS011;32017;43.700;11.820;2023-07-08T03:27:18;1.70;;;1.60;;
46282;SDS011;32017;43.700;11.820;2023-07-08T03:29:38;2.17;;;1.63;;
46282;SDS011;32017;43.700;11.820;2023-07-08T03:31:58;3.22;;;2.15;;
46282;SDS011;32017;43.700;11.820;2023-07-08T03:34:18;3.88;;;1.50;;
46282;SDS011;32017;43.700;11.820;2023-07-08T03:36:48;2.25;;;1.88;;
46282;SDS011;32017;43.700;11.820;2023-07-08T03:39:09;2.28;;;1.35;;
46282;SDS011;32017;43.700;11.820;2023-07-08T03:41:29;1.33;;;1.33;;
46282;SDS011;32017;43.700;11.820;2023-07-08T03:43:49;2.10;;;1.40;;
46282;SDS011;32017;43.700;11.820;2023-07-08T03:46:13;1.50;;;1.48;;
46282;SDS011;32017;43.700;11.820;2023-07-08T03:48:34;1.58;;;1.58;;
46282;SDS011;32017;43.700;11.820;2023-07-08T03:50:55;1.60;;;1.50;;
46282;SDS011;32017;43.700;11.820;2023-07-08T03:53:15;2.08;;;1.90;;
46282;SDS011;32017;43.700;11.820;2023-07-08T03:55:35;1.73;;;1.67;;
46282;SDS011;32017;43.700;11.820;2023-07-08T03:57:55;2.20;;;2.10;;
46282;SDS011;32017;43.700;11.820;2023-07-08T04:00:15;1.92;;;1.77;;
46282;SDS011;32017;43.700;11.820;2023-07-08T04:02:35;2.38;;;1.70;;
46282;SDS011;32017;43.700;11.820;2023-07-08T04:04:55;1.92;;;1.92;;
46282;SDS011;32017;43.700;11.820;2023-07-08T04:07:16;1.98;;;1.88;;
46282;SDS011;32017;43.700;11.820;2023-07-08T04:09:35;1.52;;;1.42;;
46282;SDS011;32017;43.700;11.820;2023-07-08T04:11:55;2.38;;;2.28;;
46282;SDS011;32017;43.700;11.820;2023-07-08T04:14:15;2.72;;;1.98;;
46282;SDS011;32017;43.700;11.820;2023-07-08T04:16:44;1.83;;;1.70;;
46282;SDS011;32017;43.700;11.820;2023-07-08T04:19:06;2.50;;;2.40;;
46282;SDS011;32017;43.700;11.820;2023-07-08T04:21:33;2.25;;;2.15;;
46282;SDS011;32017;43.700;11.820;2023-07-08T04:23:54;2.05;;;2.03;;
46282;SDS011;32017;43.700;11.820;2023-07-08T04:26:14;2.15;;;2.05;;
46282;SDS011;32017;43.700;11.820;2023-07-08T04:28:35;2.30;;;2.20;;
46282;SDS011;32017;43.700;11.820;2023-07-08T04:30:55;2.25;;;2.05;;
46282;SDS011;32017;43.700;11.820;2023-07-08T04:33:15;2.00;;;1.90;;
46282;SDS011;32017;43.700;11.820;2023-07-08T04:35:36;2.50;;;2.35;;
46282;SDS011;32017;43.700;11.820;2023-07-08T04:38:00;3.53;;;3.15;;
46282;SDS011;32017;43.700;11.820;2023-07-08T04:40:20;2.45;;;2.42;;
46282;SDS011;32017;43.700;11.820;2023-07-08T04:42:40;2.10;;;1.85;;
46282;SDS011;32017;43.700;11.820;2023-07-08T04:45:01;2.55;;;2.35;;
46282;SDS011;32017;43.700;11.820;2023-07-08T04:47:23;2.00;;;1.90;;
46282;SDS011;32017;43.700;11.820;2023-07-08T04:49:43;3.85;;;1.73;;
46282;SDS011;32017;43.700;11.820;2023-07-08T04:52:04;2.10;;;1.90;;
46282;SDS011;32017;43.700;11.820;2023-07-08T04:54:24;1.70;;;1.70;;
46282;SDS011;32017;43.700;11.820;2023-07-08T04:56:46;3.03;;;1.83;;
46282;SDS011;32017;43.700;11.820;2023-07-08T04:59:08;2.75;;;2.50;;
46282;SDS011;32017;43.700;11.820;2023-07-08T05:01:29;4.97;;;2.30;;
46282;SDS011;32017;43.700;11.820;2023-07-08T05:03:49;2.17;;;2.08;;
46282;SDS011;32017;43.700;11.820;2023-07-08T05:06:09;2.22;;;2.13;;
46282;SDS011;32017;43.700;11.820;2023-07-08T05:08:29;2.50;;;1.58;;
46282;SDS011;32017;43.700;11.820;2023-07-08T05:10:49;3.47;;;1.70;;
46282;SDS011;32017;43.700;11.820;2023-07-08T05:13:10;1.98;;;1.90;;
46282;SDS011;32017;43.700;11.820;2023-07-08T05:15:30;3.38;;;1.98;;
46282;SDS011;32017;43.700;11.820;2023-07-08T05:17:50;2.80;;;1.63;;
46282;SDS011;32017;43.700;11.820;2023-07-08T05:20:12;2.45;;;2.35;;
46282;SDS011;32017;43.700;11.820;2023-07-08T05:22:34;6.53;;;1.88;;
46282;SDS011;32017;43.700;11.820;2023-07-08T05:24:54;2.15;;;2.00;;
46282;SDS011;32017;43.700;11.820;2023-07-08T05:27:15;2.20;;;2.10;;
46282;SDS011;32017;43.700;11.820;2023-07-08T05:29:36;2.03;;;1.98;;
46282;SDS011;32017;43.700;11.820;2023-07-08T05:31:56;1.73;;;1.58;;
46282;SDS011;32017;43.700;11.820;2023-07-08T05:34:17;3.10;;;2.05;;
46282;SDS011;32017;43.700;11.820;2023-07-08T05:36:37;2.88;;;1.83;;
46282;SDS011;32017;43.700;11.820;2023-07-08T05:38:57;2.83;;;1.85;;
46282;SDS011;32017;43.700;11.820;2023-07-08T05:41:18;2.08;;;2.03;;
46282;SDS011;32017;43.700;11.820;2023-07-08T05:43:38;5.13;;;1.90;;
46282;SDS011;32017;43.700;11.820;2023-07-08T05:45:58;2.72;;;2.45;;
46282;SDS011;32017;43.700;11.820;2023-07-08T05:48:31;1.33;;;1.33;;
46282;SDS011;32017;43.700;11.820;2023-07-08T05:50:51;1.88;;;1.77;;
46282;SDS011;32017;43.700;11.820;2023-07-08T05:53:12;2.90;;;1.48;;
46282;SDS011;32017;43.700;11.820;2023-07-08T05:55:33;3.50;;;1.63;;
46282;SDS011;32017;43.700;11.820;2023-07-08T05:57:53;1.85;;;1.75;;
46282;SDS011;32017;43.700;11.820;2023-07-08T06:00:13;2.28;;;1.58;;
46282;SDS011;32017;43.700;11.820;2023-07-08T06:02:50;4.10;;;2.08;;
46282;SDS011;32017;43.700;11.820;2023-07-08T06:05:10;1.90;;;1.80;;
46282;SDS011;32017;43.700;11.820;2023-07-08T06:07:30;2.10;;;1.88;;
46282;SDS011;32017;43.700;11.820;2023-07-08T06:09:51;1.95;;;1.85;;
46282;SDS011;32017;43.700;11.820;2023-07-08T06:12:11;1.80;;;1.70;;
46282;SDS011;32017;43.700;11.820;2023-07-08T06:14:31;2.17;;;1.85;;
46282;SDS011;32017;43.700;11.820;2023-07-08T06:16:52;1.88;;;1.60;;
46282;SDS011;32017;43.700;11.820;2023-07-08T06:19:14;1.80;;;1.70;;
46282;SDS011;32017;43.700;11.820;2023-07-08T06:21:36;2.00;;;1.88;;
46282;SDS011;32017;43.700;11.820;2023-07-08T06:23:59;2.60;;;1.30;;
46282;SDS011;32017;43.700;11.820;2023-07-08T06:26:19;4.00;;;2.13;;
46282;SDS011;32017;43.700;11.820;2023-07-08T06:28:39;1.23;;;1.13;;
46282;SDS011;32017;43.700;11.820;2023-07-08T06:30:59;2.63;;;1.58;;
46282;SDS011;32017;43.700;11.820;2023-07-08T06:33:19;3.50;;;1.45;;
46282;SDS011;32017;43.700;11.820;2023-07-08T06:35:40;1.30;;;1.30;;
46282;SDS011;32017;43.700;11.820;2023-07-08T06:38:03;2.40;;;1.67;;
46282;SDS011;32017;43.700;11.820;2023-07-08T06:40:23;1.60;;;1.60;;
46282;SDS011;32017;43.700;11.820;2023-07-08T06:42:45;1.73;;;1.63;;
46282;SDS011;32017;43.700;11.820;2023-07-08T06:45:05;2.13;;;1.85;;
46282;SDS011;32017;43.700;11.820;2023-07-08T06:47:25;2.70;;;1.90;;
46282;SDS011;32017;43.700;11.820;2023-07-08T06:49:46;1.90;;;1.80;;
46282;SDS011;32017;43.700;11.820;2023-07-08T06:52:06;2.35;;;1.80;;
46282;SDS011;32017;43.700;11.820;2023-07-08T06:54:27;2.95;;;1.40;;
46282;SDS011;32017;43.700;11.820;2023-07-08T06:56:47;1.67;;;1.65;;
46282;SDS011;32017;43.700;11.820;2023-07-08T07:04:11;3.53;;;1.30;;
46282;SDS011;32017;43.700;11.820;2023-07-08T07:06:31;4.45;;;1.40;;
46282;SDS011;32017;43.700;11.820;2023-07-08T07:08:50;5.07;;;2.25;;
46282;SDS011;32017;43.700;11.820;2023-07-08T07:11:10;2.00;;;1.90;;
46282;SDS011;32017;43.700;11.820;2023-07-08T07:13:30;1.60;;;1.55;;
46282;SDS011;32017;43.700;11.820;2023-07-08T07:15:51;1.73;;;1.60;;
46282;SDS011;32017;43.700;11.820;2023-07-08T07:18:12;1.95;;;1.85;;
46282;SDS011;32017;43.700;11.820;2023-07-08T07:20:32;2.25;;;1.65;;
46282;SDS011;32017;43.700;11.820;2023-07-08T07:22:55;2.22;;;1.45;;
46282;SDS011;32017;43.700;11.820;2023-07-08T07:25:15;1.83;;;1.20;;
46282;SDS011;32017;43.700;11.820;2023-07-08T07:27:35;1.70;;;1.60;;
46282;SDS011;32017;43.700;11.820;2023-07-08T07:29:55;3.40;;;1.10;;
46282;SDS011;32017;43.700;11.820;2023-07-08T07:32:19;1.90;;;1.40;;
46282;SDS011;32017;43.700;11.820;2023-07-08T07:34:45;1.85;;;1.23;;
46282;SDS011;32017;43.700;11.820;2023-07-08T07:37:07;1.20;;;1.20;;
46282;SDS011;32017;43.700;11.820;2023-07-08T07:39:31;1.17;;;1.10;;
46282;SDS011;32017;43.700;11.820;2023-07-08T07:41:51;1.67;;;1.40;;
46282;SDS011;32017;43.700;11.820;2023-07-08T07:44:12;2.00;;;1.20;;
46282;SDS011;32017;43.700;11.820;2023-07-08T07:46:32;1.40;;;1.30;;
46282;SDS011;32017;43.700;11.820;2023-07-08T07:48:52;2.38;;;1.30;;
46282;SDS011;32017;43.700;11.820;2023-07-08T07:51:13;3.80;;;1.10;;
46282;SDS011;32017;43.700;11.820;2023-07-08T07:53:33;1.35;;;1.25;;
46282;SDS011;32017;43.700;11.820;2023-07-08T07:56:00;5.38;;;1.25;;
46282;SDS011;32017;43.700;11.820;2023-07-08T07:58:22;3.15;;;1.30;;
46282;SDS011;32017;43.700;11.820;2023-07-08T08:00:42;4.18;;;1.55;;
46282;SDS011;32017;43.700;11.820;2023-07-08T08:03:02;10.90;;;3.35;;
46282;SDS011;32017;43.700;11.820;2023-07-08T08:05:23;11.68;;;1.65;;
46282;SDS011;32017;43.700;11.820;2023-07-08T08:07:43;1.30;;;1.20;;
46282;SDS011;32017;43.700;11.820;2023-07-08T08:10:03;2.28;;;1.10;;
46282;SDS011;32017;43.700;11.820;2023-07-08T08:12:23;2.03;;;1.00;;
46282;SDS011;32017;43.700;11.820;2023-07-08T08:14:44;2.88;;;1.20;;
46282;SDS011;32017;43.700;11.820;2023-07-08T08:17:04;4.03;;;1.00;;
46282;SDS011;32017;43.700;11.820;2023-07-08T08:19:24;1.70;;;1.60;;
46282;SDS011;32017;43.700;11.820;2023-07-08T08:21:44;1.55;;;0.98;;
46282;SDS011;32017;43.700;11.820;2023-07-08T08:24:04;1.20;;;1.10;;
46282;SDS011;32017;43.700;11.820;2023-07-08T08:26:25;1.25;;;1.10;;
46282;SDS011;32017;43.700;11.820;2023-07-08T08:28:46;1.92;;;1.30;;
46282;SDS011;32017;43.700;11.820;2023-07-08T08:31:05;1.60;;;1.50;;
46282;SDS011;32017;43.700;11.820;2023-07-08T08:33:25;7.07;;;1.23;;
46282;SDS011;32017;43.700;11.820;2023-07-08T08:35:46;1.92;;;1.20;;
46282;SDS011;32017;43.700;11.820;2023-07-08T08:38:07;1.20;;;1.10;;
46282;SDS011;32017;43.700;11.820;2023-07-08T08:40:26;2.30;;;1.08;;
46282;SDS011;32017;43.700;11.820;2023-07-08T08:42:51;2.30;;;1.20;;
46282;SDS011;32017;43.700;11.820;2023-07-08T08:45:17;1.48;;;0.98;;
46282;SDS011;32017;43.700;11.820;2023-07-08T08:47:40;0.95;;;0.95;;
46282;SDS011;32017;43.700;11.820;2023-07-08T08:53:05;1.98;;;1.00;;
46282;SDS011;32017;43.700;11.820;2023-07-08T08:55:31;1.52;;;1.42;;
46282;SDS011;32017;43.700;11.820;2023-07-08T08:57:59;1.00;;;1.00;;
46282;SDS011;32017;43.700;11.820;2023-07-08T09:00:53;0.90;;;0.90;;
46282;SDS011;32017;43.700;11.820;2023-07-08T09:03:18;2.25;;;0.80;;
46282;SDS011;32017;43.700;11.820;2023-07-08T09:06:04;0.90;;;0.90;;
46282;SDS011;32017;43.700;11.820;2023-07-08T09:08:32;0.95;;;0.90;;
46282;SDS011;32017;43.700;11.820;2023-07-08T09:10:56;1.70;;;0.90;;
46282;SDS011;32017;43.700;11.820;2023-07-08T09:13:25;0.90;;;0.90;;
46282;SDS011;32017;43.700;11.820;2023-07-08T09:18:38;3.80;;;1.17;;
46282;SDS011;32017;43.700;11.820;2023-07-08T09:21:16;2.30;;;0.90;;
46282;SDS011;32017;43.700;11.820;2023-07-08T09:23:40;1.00;;;1.00;;
46282;SDS011;32017;43.700;11.820;2023-07-08T09:26:04;1.48;;;1.08;;
46282;SDS011;32017;43.700;11.820;2023-07-08T09:28:41;1.15;;;1.15;;
46282;SDS011;32017;43.700;11.820;2023-07-08T09:31:03;0.98;;;0.80;;
46282;SDS011;32017;43.700;11.820;2023-07-08T09:33:27;0.82;;;0.82;;
46282;SDS011;32017;43.700;11.820;2023-07-08T09:35:48;0.95;;;0.95;;
46282;SDS011;32017;43.700;11.820;2023-07-08T09:38:15;2.45;;;0.80;;
46282;SDS011;32017;43.700;11.820;2023-07-08T09:40:36;1.65;;;0.90;;
46282;SDS011;32017;43.700;11.820;2023-07-08T09:43:11;0.88;;;0.88;;
46282;SDS011;32017;43.700;11.820;2023-07-08T09:45:42;1.02;;;0.90;;
46282;SDS011;32017;43.700;11.820;2023-07-08T09:48:14;1.10;;;0.80;;
46282;SDS011;32017;43.700;11.820;2023-07-08T09:50:36;0.80;;;0.80;;
46282;SDS011;32017;43.700;11.820;2023-07-08T09:52:57;2.45;;;0.82;;
46282;SDS011;32017;43.700;11.820;2023-07-08T09:55:20;0.80;;;0.80;;
46282;SDS011;32017;43.700;11.820;2023-07-08T09:57:40;2.15;;;0.82;;
46282;SDS011;32017;43.700;11.820;2023-07-08T10:00:08;1.05;;;0.80;;
46282;SDS011;32017;43.700;11.820;2023-07-08T10:02:42;1.70;;;0.90;;
46282;SDS011;32017;43.700;11.820;2023-07-08T10:05:24;0.80;;;0.80;;
46282;SDS011;32017;43.700;11.820;2023-07-08T10:07:48;1.75;;;0.90;;
46282;SDS011;32017;43.700;11.820;2023-07-08T10:10:15;0.60;;;0.60;;
46282;SDS011;32017;43.700;11.820;2023-07-08T10:12:37;0.80;;;0.70;;
46282;SDS011;32017;43.700;11.820;2023-07-08T10:15:03;0.80;;;0.80;;
46282;SDS011;32017;43.700;11.820;2023-07-08T10:17:35;0.77;;;0.77;;
46282;SDS011;32017;43.700;11.820;2023-07-08T10:20:00;1.35;;;0.73;;
46282;SDS011;32017;43.700;11.820;2023-07-08T10:43:06;0.80;;;0.80;;
46282;SDS011;32017;43.700;11.820;2023-07-08T10:45:40;0.70;;;0.70;;
46282;SDS011;32017;43.700;11.820;2023-07-08T10:53:46;1.15;;;0.70;;
46282;SDS011;32017;43.700;11.820;2023-07-08T11:09:13;0.70;;;0.70;;
46282;SDS011;32017;43.700;11.820;2023-07-08T11:14:03;0.77;;;0.70;;
46282;SDS011;32017;43.700;11.820;2023-07-08T11:16:37;1.13;;;0.60;;
46282;SDS011;32017;43.700;11.820;2023-07-08T11:21:37;0.60;;;0.60;;
46282;SDS011;32017;43.700;11.820;2023-07-08T11:24:10;0.70;;;0.70;;
46282;SDS011;32017;43.700;11.820;2023-07-08T11:28:58;2.20;;;0.60;;
46282;SDS011;32017;43.700;11.820;2023-07-08T11:31:19;0.90;;;0.60;;
46282;SDS011;32017;43.700;11.820;2023-07-08T11:33:42;0.60;;;0.60;;
46282;SDS011;32017;43.700;11.820;2023-07-08T11:36:02;0.70;;;0.70;;
46282;SDS011;32017;43.700;11.820;2023-07-08T11:38:24;1.77;;;0.63;;
46282;SDS011;32017;43.700;11.820;2023-07-08T11:43:26;0.68;;;0.68;;
46282;SDS011;32017;43.700;11.820;2023-07-08T11:45:56;0.60;;;0.60;;
46282;SDS011;32017;43.700;11.820;2023-07-08T11:48:30;0.90;;;0.60;;
46282;SDS011;32017;43.700;11.820;2023-07-08T11:50:53;0.60;;;0.60;;
46282;SDS011;32017;43.700;11.820;2023-07-08T11:53:58;0.60;;;0.60;;
46282;SDS011;32017;43.700;11.820;2023-07-08T11:58:49;0.60;;;0.60;;
46282;SDS011;32017;43.700;11.820;2023-07-08T12:03:37;0.60;;;0.60;;
46282;SDS011;32017;43.700;11.820;2023-07-08T12:05:58;0.60;;;0.60;;
46282;SDS011;32017;43.700;11.820;2023-07-08T12:08:21;0.93;;;0.60;;
46282;SDS011;32017;43.700;11.820;2023-07-08T12:10:53;0.95;;;0.50;;
46282;SDS011;32017;43.700;11.820;2023-07-08T12:13:17;0.60;;;0.60;;
46282;SDS011;32017;43.700;11.820;2023-07-08T12:15:40;0.60;;;0.60;;
46282;SDS011;32017;43.700;11.820;2023-07-08T12:18:11;1.30;;;0.60;;
46282;SDS011;32017;43.700;11.820;2023-07-08T12:20:56;0.70;;;0.70;;
46282;SDS011;32017;43.700;11.820;2023-07-08T12:23:19;0.60;;;0.60;;
46282;SDS011;32017;43.700;11.820;2023-07-08T12:25:42;1.70;;;0.70;;
46282;SDS011;32017;43.700;11.820;2023-07-08T12:28:02;1.98;;;0.60;;
46282;SDS011;32017;43.700;11.820;2023-07-08T12:30:22;0.90;;;0.50;;
46282;SDS011;32017;43.700;11.820;2023-07-08T12:32:46;2.58;;;0.57;;
46282;SDS011;32017;43.700;11.820;2023-07-08T12:35:16;1.25;;;0.50;;
46282;SDS011;32017;43.700;11.820;2023-07-08T12:37:42;0.60;;;0.60;;
46282;SDS011;32017;43.700;11.820;2023-07-08T12:40:03;0.60;;;0.60;;
46282;SDS011;32017;43.700;11.820;2023-07-08T12:42:30;0.88;;;0.60;;
46282;SDS011;32017;43.700;11.820;2023-07-08T12:44:50;1.75;;;0.60;;
46282;SDS011;32017;43.700;11.820;2023-07-08T12:47:09;0.82;;;0.50;;
46282;SDS011;32017;43.700;11.820;2023-07-08T12:49:33;0.80;;;0.60;;
46282;SDS011;32017;43.700;11.820;2023-07-08T12:51:53;1.60;;;0.70;;
46282;SDS011;32017;43.700;11.820;2023-07-08T12:54:13;0.90;;;0.55;;
46282;SDS011;32017;43.700;11.820;2023-07-08T12:56:34;0.60;;;0.60;;
46282;SDS011;32017;43.700;11.820;2023-07-08T12:58:56;1.20;;;0.60;;
46282;SDS011;32017;43.700;11.820;2023-07-08T13:01:19;1.13;;;0.80;;
46282;SDS011;32017;43.700;11.820;2023-07-08T13:03:42;0.75;;;0.60;;
46282;SDS011;32017;43.700;11.820;2023-07-08T13:06:07;0.60;;;0.60;;
46282;SDS011;32017;43.700;11.820;2023-07-08T13:08:33;0.70;;;0.50;;
46282;SDS011;32017;43.700;11.820;2023-07-08T13:10:57;1.60;;;0.60;;
46282;SDS011;32017;43.700;11.820;2023-07-08T13:13:20;1.75;;;0.60;;
46282;SDS011;32017;43.700;11.820;2023-07-08T13:15:42;0.60;;;0.60;;
46282;SDS011;32017;43.700;11.820;2023-07-08T13:18:03;0.50;;;0.50;;
46282;SDS011;32017;43.700;11.820;2023-07-08T13:20:23;1.23;;;0.60;;
46282;SDS011;32017;43.700;11.820;2023-07-08T13:22:45;0.60;;;0.60;;
46282;SDS011;32017;43.700;11.820;2023-07-08T13:25:19;1.25;;;0.70;;
46282;SDS011;32017;43.700;11.820;2023-07-08T13:28:00;0.88;;;0.60;;
46282;SDS011;32017;43.700;11.820;2023-07-08T13:30:23;0.60;;;0.60;;
46282;SDS011;32017;43.700;11.820;2023-07-08T13:32:48;0.65;;;0.60;;
46282;SDS011;32017;43.700;11.820;2023-07-08T13:35:21;0.95;;;0.60;;
46282;SDS011;32017;43.700;11.820;2023-07-08T13:37:44;1.00;;;0.65;;
46282;SDS011;32017;43.700;11.820;2023-07-08T13:40:07;0.60;;;0.60;;
46282;SDS011;32017;43.700;11.820;2023-07-08T13:42:28;0.50;;;0.50;;
46282;SDS011;32017;43.700;11.820;2023-07-08T13:44:48;1.55;;;0.50;;
46282;SDS011;32017;43.700;11.820;2023-07-08T13:47:23;0.60;;;0.60;;
46282;SDS011;32017;43.700;11.820;2023-07-08T13:49:47;1.10;;;0.55;;
46282;SDS011;32017;43.700;11.820;2023-07-08T13:54:47;0.75;;;0.60;;
46282;SDS011;32017;43.700;11.820;2023-07-08T13:57:18;0.93;;;0.90;;
46282;SDS011;32017;43.700;11.820;2023-07-08T13:59:40;0.50;;;0.50;;
46282;SDS011;32017;43.700;11.820;2023-07-08T14:02:00;0.60;;;0.60;;
46282;SDS011;32017;43.700;11.820;2023-07-08T14:04:24;1.92;;;0.93;;
46282;SDS011;32017;43.700;11.820;2023-07-08T14:06:51;0.60;;;0.60;;
46282;SDS011;32017;43.700;11.820;2023-07-08T14:09:13;2.92;;;0.60;;
46282;SDS011;32017;43.700;11.820;2023-07-08T14:11:38;4.85;;;1.08;;
46282;SDS011;32017;43.700;11.820;2023-07-08T14:13:59;0.60;;;0.60;;
46282;SDS011;32017;43.700;11.820;2023-07-08T14:16:26;0.55;;;0.55;;
46282;SDS011;32017;43.700;11.820;2023-07-08T14:18:48;1.52;;;0.60;;
46282;SDS011;32017;43.700;11.820;2023-07-08T14:21:09;0.50;;;0.50;;
46282;SDS011;32017;43.700;11.820;2023-07-08T14:23:29;0.57;;;0.57;;
46282;SDS011;32017;43.700;11.820;2023-07-08T14:25:49;1.42;;;0.50;;
46282;SDS011;32017;43.700;11.820;2023-07-08T14:28:09;0.60;;;0.50;;
46282;SDS011;32017;43.700;11.820;2023-07-08T14:30:29;1.15;;;0.50;;
46282;SDS011;32017;43.700;11.820;2023-07-08T14:32:49;2.00;;;0.60;;
46282;SDS011;32017;43.700;11.820;2023-07-08T14:37:29;1.45;;;0.52;;
46282;SDS011;32017;43.700;11.820;2023-07-08T14:39:49;1.00;;;0.63;;
46282;SDS011;32017;43.700;11.820;2023-07-08T14:42:13;0.60;;;0.60;;
46282;SDS011;32017;43.700;11.820;2023-07-08T14:44:36;0.60;;;0.60;;
46282;SDS011;32017;43.700;11.820;2023-07-08T14:46:57;2.05;;;0.70;;
46282;SDS011;32017;43.700;11.820;2023-07-08T14:49:19;1.85;;;0.57;;
46282;SDS011;32017;43.700;11.820;2023-07-08T14:51:40;0.70;;;0.70;;
46282;SDS011;32017;43.700;11.820;2023-07-08T14:54:00;0.50;;;0.50;;
46282;SDS011;32017;43.700;11.820;2023-07-08T14:56:20;0.50;;;0.50;;
46282;SDS011;32017;43.700;11.820;2023-07-08T14:58:41;1.83;;;0.60;;
46282;SDS011;32017;43.700;11.820;2023-07-08T15:01:07;1.13;;;0.60;;
46282;SDS011;32017;43.700;11.820;2023-07-08T15:03:31;0.60;;;0.60;;
46282;SDS011;32017;43.700;11.820;2023-07-08T15:05:51;1.00;;;0.60;;
46282;SDS011;32017;43.700;11.820;2023-07-08T15:08:12;2.50;;;0.50;;
46282;SDS011;32017;43.700;11.820;2023-07-08T15:10:32;0.88;;;0.60;;
46282;SDS011;32017;43.700;11.820;2023-07-08T15:12:53;0.50;;;0.50;;
46282;SDS011;32017;43.700;11.820;2023-07-08T15:15:16;0.70;;;0.70;;
46282;SDS011;32017;43.700;11.820;2023-07-08T15:20:12;1.38;;;0.60;;
46282;SDS011;32017;43.700;11.820;2023-07-08T15:22:34;0.63;;;0.63;;